sensor_id;sensor_type;location;lat;lon;timestamp;temperature;humidity
70986;DHT22;58645;43.068;25.610;2022-08-19T00:00:07;22.50;69.90
70986;DHT22;58645;43.068;25.610;2022-08-19T00:02:34;22.50;69.90
70986;DHT22;58645;43.068;25.610;2022-08-19T00:05:00;22.50;69.60
70986;DHT22;58645;43.068;25.610;2022-08-19T00:07:26;22.50;69.60
70986;DHT22;58645;43.068;25.610;2022-08-19T00:09:52;22.60;69.50
70986;DHT22;58645;43.068;25.610;2022-08-19T00:12:18;22.50;69.70
70986;DHT22;58645;43.068;25.610;2022-08-19T00:14:43;22.50;69.60
70986;DHT22;58645;43.068;25.610;2022-08-19T00:17:10;22.50;69.80
70986;DHT22;58645;43.068;25.610;2022-08-19T00:19:36;22.50;70.00
70986;DHT22;58645;43.068;25.610;2022-08-19T00:22:03;22.50;70.10
70986;DHT22;58645;43.068;25.610;2022-08-19T00:24:31;22.40;70.40
70986;DHT22;58645;43.068;25.610;2022-08-19T00:26:57;22.40;70.60
70986;DHT22;58645;43.068;25.610;2022-08-19T00:29:24;22.40;71.00
70986;DHT22;58645;43.068;25.610;2022-08-19T00:31:51;22.30;71.40
70986;DHT22;58645;43.068;25.610;2022-08-19T00:34:20;22.20;71.80
70986;DHT22;58645;43.068;25.610;2022-08-19T00:36:47;22.20;72.40
70986;DHT22;58645;43.068;25.610;2022-08-19T00:39:15;22.10;72.80
70986;DHT22;58645;43.068;25.610;2022-08-19T00:41:42;22.00;72.90
70986;DHT22;58645;43.068;25.610;2022-08-19T00:44:14;22.00;73.20
70986;DHT22;58645;43.068;25.610;2022-08-19T00:46:44;21.90;73.70
70986;DHT22;58645;43.068;25.610;2022-08-19T00:49:29;21.80;74.00
70986;DHT22;58645;43.068;25.610;2022-08-19T00:52:14;21.70;74.00
70986;DHT22;58645;43.068;25.610;2022-08-19T00:54:42;21.70;74.00
70986;DHT22;58645;43.068;25.610;2022-08-19T00:57:12;21.70;73.90
70986;DHT22;58645;43.068;25.610;2022-08-19T00:59:42;21.70;74.10
70986;DHT22;58645;43.068;25.610;2022-08-19T01:02:11;21.70;74.30
70986;DHT22;58645;43.068;25.610;2022-08-19T01:04:37;21.70;74.20
70986;DHT22;58645;43.068;25.610;2022-08-19T01:07:03;21.60;74.30
70986;DHT22;58645;43.068;25.610;2022-08-19T01:09:29;21.60;74.50
70986;DHT22;58645;43.068;25.610;2022-08-19T01:11:56;21.60;74.90
70986;DHT22;58645;43.068;25.610;2022-08-19T01:14:22;21.60;74.90
70986;DHT22;58645;43.068;25.610;2022-08-19T01:16:49;21.60;75.00
70986;DHT22;58645;43.068;25.610;2022-08-19T01:19:31;21.50;75.20
70986;DHT22;58645;43.068;25.610;2022-08-19T01:22:35;21.50;75.50
70986;DHT22;58645;43.068;25.610;2022-08-19T01:25:03;21.40;75.60
70986;DHT22;58645;43.068;25.610;2022-08-19T01:27:38;21.40;76.00
70986;DHT22;58645;43.068;25.610;2022-08-19T01:30:06;21.40;76.30
70986;DHT22;58645;43.068;25.610;2022-08-19T01:32:32;21.40;76.60
70986;DHT22;58645;43.068;25.610;2022-08-19T01:34:58;21.40;76.90
70986;DHT22;58645;43.068;25.610;2022-08-19T01:37:27;21.30;77.10
70986;DHT22;58645;43.068;25.610;2022-08-19T01:39:52;21.30;77.20
70986;DHT22;58645;43.068;25.610;2022-08-19T01:42:18;21.30;77.10
70986;DHT22;58645;43.068;25.610;2022-08-19T01:44:45;21.40;76.90
70986;DHT22;58645;43.068;25.610;2022-08-19T01:47:11;21.30;76.80
70986;DHT22;58645;43.068;25.610;2022-08-19T01:49:37;21.30;76.80
70986;DHT22;58645;43.068;25.610;2022-08-19T01:52:04;21.40;76.90
70986;DHT22;58645;43.068;25.610;2022-08-19T01:54:31;21.40;76.80
70986;DHT22;58645;43.068;25.610;2022-08-19T01:57:02;21.30;77.00
70986;DHT22;58645;43.068;25.610;2022-08-19T01:59:30;21.30;76.80
70986;DHT22;58645;43.068;25.610;2022-08-19T02:01:56;21.30;77.10
70986;DHT22;58645;43.068;25.610;2022-08-19T02:04:22;21.20;77.30
70986;DHT22;58645;43.068;25.610;2022-08-19T02:06:48;21.20;77.30
70986;DHT22;58645;43.068;25.610;2022-08-19T02:09:14;21.20;77.40
70986;DHT22;58645;43.068;25.610;2022-08-19T02:11:41;21.20;77.50
70986;DHT22;58645;43.068;25.610;2022-08-19T02:14:07;21.10;77.70
70986;DHT22;58645;43.068;25.610;2022-08-19T02:16:34;21.10;77.70
70986;DHT22;58645;43.068;25.610;2022-08-19T02:19:00;21.10;77.90
70986;DHT22;58645;43.068;25.610;2022-08-19T02:21:27;21.00;77.90
70986;DHT22;58645;43.068;25.610;2022-08-19T02:23:53;21.00;78.20
70986;DHT22;58645;43.068;25.610;2022-08-19T02:26:19;21.00;78.30
70986;DHT22;58645;43.068;25.610;2022-08-19T02:28:45;20.90;78.30
70986;DHT22;58645;43.068;25.610;2022-08-19T02:31:15;20.90;78.60
70986;DHT22;58645;43.068;25.610;2022-08-19T02:33:43;20.90;78.50
70986;DHT22;58645;43.068;25.610;2022-08-19T02:36:11;20.80;78.50
70986;DHT22;58645;43.068;25.610;2022-08-19T02:38:37;20.80;78.60
70986;DHT22;58645;43.068;25.610;2022-08-19T02:41:06;20.80;78.70
70986;DHT22;58645;43.068;25.610;2022-08-19T02:43:33;20.70;78.80
70986;DHT22;58645;43.068;25.610;2022-08-19T02:46:15;20.70;79.10
70986;DHT22;58645;43.068;25.610;2022-08-19T02:48:47;20.70;79.20
70986;DHT22;58645;43.068;25.610;2022-08-19T02:51:19;20.70;79.10
70986;DHT22;58645;43.068;25.610;2022-08-19T02:53:45;20.80;78.90
70986;DHT22;58645;43.068;25.610;2022-08-19T02:56:11;20.80;78.70
70986;DHT22;58645;43.068;25.610;2022-08-19T02:58:37;20.80;78.60
70986;DHT22;58645;43.068;25.610;2022-08-19T03:01:03;20.90;78.30
70986;DHT22;58645;43.068;25.610;2022-08-19T03:03:29;20.90;78.10
70986;DHT22;58645;43.068;25.610;2022-08-19T03:06:10;20.90;77.90
70986;DHT22;58645;43.068;25.610;2022-08-19T03:08:39;20.90;78.20
70986;DHT22;58645;43.068;25.610;2022-08-19T03:11:05;20.90;78.20
70986;DHT22;58645;43.068;25.610;2022-08-19T03:13:31;20.90;78.20
70986;DHT22;58645;43.068;25.610;2022-08-19T03:15:57;21.00;78.50
70986;DHT22;58645;43.068;25.610;2022-08-19T03:18:22;21.00;78.60
70986;DHT22;58645;43.068;25.610;2022-08-19T03:20:50;21.00;78.70
70986;DHT22;58645;43.068;25.610;2022-08-19T03:23:18;21.00;78.50
70986;DHT22;58645;43.068;25.610;2022-08-19T03:25:48;21.00;78.70
70986;DHT22;58645;43.068;25.610;2022-08-19T03:28:15;20.90;78.90
70986;DHT22;58645;43.068;25.610;2022-08-19T03:30:43;20.80;79.20
70986;DHT22;58645;43.068;25.610;2022-08-19T03:33:22;20.80;79.50
70986;DHT22;58645;43.068;25.610;2022-08-19T03:35:59;20.80;79.80
70986;DHT22;58645;43.068;25.610;2022-08-19T03:38:25;20.70;80.20
70986;DHT22;58645;43.068;25.610;2022-08-19T03:40:51;20.60;80.50
70986;DHT22;58645;43.068;25.610;2022-08-19T03:43:17;20.60;81.00
70986;DHT22;58645;43.068;25.610;2022-08-19T03:45:43;20.50;81.40
70986;DHT22;58645;43.068;25.610;2022-08-19T03:48:08;20.50;81.50
70986;DHT22;58645;43.068;25.610;2022-08-19T03:50:39;20.50;81.60
70986;DHT22;58645;43.068;25.610;2022-08-19T03:53:05;20.50;82.00
70986;DHT22;58645;43.068;25.610;2022-08-19T03:55:31;20.50;82.10
70986;DHT22;58645;43.068;25.610;2022-08-19T03:57:57;20.50;82.10
70986;DHT22;58645;43.068;25.610;2022-08-19T04:00:23;20.50;82.10
70986;DHT22;58645;43.068;25.610;2022-08-19T04:02:49;20.60;82.00
70986;DHT22;58645;43.068;25.610;2022-08-19T04:05:15;20.60;82.00
70986;DHT22;58645;43.068;25.610;2022-08-19T04:07:43;20.60;82.00
70986;DHT22;58645;43.068;25.610;2022-08-19T04:10:09;20.70;81.80
70986;DHT22;58645;43.068;25.610;2022-08-19T04:12:35;20.80;81.60
70986;DHT22;58645;43.068;25.610;2022-08-19T04:15:00;20.90;81.40
70986;DHT22;58645;43.068;25.610;2022-08-19T04:17:28;21.00;79.90
70986;DHT22;58645;43.068;25.610;2022-08-19T04:19:54;21.00;79.50
70986;DHT22;58645;43.068;25.610;2022-08-19T04:22:20;21.10;79.40
70986;DHT22;58645;43.068;25.610;2022-08-19T04:24:46;21.30;78.80
70986;DHT22;58645;43.068;25.610;2022-08-19T04:27:11;21.40;78.00
70986;DHT22;58645;43.068;25.610;2022-08-19T04:29:37;21.50;77.50
70986;DHT22;58645;43.068;25.610;2022-08-19T04:32:05;21.70;77.10
70986;DHT22;58645;43.068;25.610;2022-08-19T04:34:30;21.70;77.20
70986;DHT22;58645;43.068;25.610;2022-08-19T04:36:57;21.80;76.80
70986;DHT22;58645;43.068;25.610;2022-08-19T04:39:27;21.90;76.70
70986;DHT22;58645;43.068;25.610;2022-08-19T04:42:15;22.00;76.20
70986;DHT22;58645;43.068;25.610;2022-08-19T04:45:00;22.10;76.40
70986;DHT22;58645;43.068;25.610;2022-08-19T04:47:28;22.40;75.80
70986;DHT22;58645;43.068;25.610;2022-08-19T04:49:56;22.60;75.10
70986;DHT22;58645;43.068;25.610;2022-08-19T04:52:22;22.80;74.30
70986;DHT22;58645;43.068;25.610;2022-08-19T04:54:48;23.00;73.70
70986;DHT22;58645;43.068;25.610;2022-08-19T04:57:14;23.10;72.80
70986;DHT22;58645;43.068;25.610;2022-08-19T04:59:40;23.10;72.50
70986;DHT22;58645;43.068;25.610;2022-08-19T05:02:08;23.30;72.40
70986;DHT22;58645;43.068;25.610;2022-08-19T05:04:35;23.50;72.00
70986;DHT22;58645;43.068;25.610;2022-08-19T05:07:03;23.50;71.30
70986;DHT22;58645;43.068;25.610;2022-08-19T05:09:29;23.50;71.60
70986;DHT22;58645;43.068;25.610;2022-08-19T05:11:55;23.60;71.00
70986;DHT22;58645;43.068;25.610;2022-08-19T05:14:21;23.70;70.40
70986;DHT22;58645;43.068;25.610;2022-08-19T05:16:47;23.80;70.20
70986;DHT22;58645;43.068;25.610;2022-08-19T05:19:12;24.00;69.10
70986;DHT22;58645;43.068;25.610;2022-08-19T05:21:58;24.20;68.30
70986;DHT22;58645;43.068;25.610;2022-08-19T05:24:43;24.50;66.70
70986;DHT22;58645;43.068;25.610;2022-08-19T05:27:08;24.80;65.90
70986;DHT22;58645;43.068;25.610;2022-08-19T05:29:34;24.90;64.30
70986;DHT22;58645;43.068;25.610;2022-08-19T05:32:03;25.00;63.50
70986;DHT22;58645;43.068;25.610;2022-08-19T05:34:30;25.10;63.00
70986;DHT22;58645;43.068;25.610;2022-08-19T05:36:59;25.60;61.20
70986;DHT22;58645;43.068;25.610;2022-08-19T05:39:27;26.40;59.70
70986;DHT22;58645;43.068;25.610;2022-08-19T05:42:00;26.80;57.90
70986;DHT22;58645;43.068;25.610;2022-08-19T05:44:28;27.40;55.70
70986;DHT22;58645;43.068;25.610;2022-08-19T05:46:58;27.70;54.60
70986;DHT22;58645;43.068;25.610;2022-08-19T05:49:25;28.20;54.00
70986;DHT22;58645;43.068;25.610;2022-08-19T05:51:55;28.80;52.70
70986;DHT22;58645;43.068;25.610;2022-08-19T05:54:22;29.10;51.30
70986;DHT22;58645;43.068;25.610;2022-08-19T05:56:50;29.50;50.50
70986;DHT22;58645;43.068;25.610;2022-08-19T05:59:16;30.00;49.10
70986;DHT22;58645;43.068;25.610;2022-08-19T06:01:44;30.10;47.90
70986;DHT22;58645;43.068;25.610;2022-08-19T06:04:12;30.40;46.60
70986;DHT22;58645;43.068;25.610;2022-08-19T06:06:42;30.70;46.70
70986;DHT22;58645;43.068;25.610;2022-08-19T06:09:08;31.30;45.80
70986;DHT22;58645;43.068;25.610;2022-08-19T06:11:43;31.70;44.40
70986;DHT22;58645;43.068;25.610;2022-08-19T06:14:18;31.90;43.40
70986;DHT22;58645;43.068;25.610;2022-08-19T06:16:45;32.30;43.30
70986;DHT22;58645;43.068;25.610;2022-08-19T06:19:16;32.50;42.70
70986;DHT22;58645;43.068;25.610;2022-08-19T06:21:44;32.70;42.20
70986;DHT22;58645;43.068;25.610;2022-08-19T06:24:12;32.90;41.50
70986;DHT22;58645;43.068;25.610;2022-08-19T06:26:41;33.20;41.70
70986;DHT22;58645;43.068;25.610;2022-08-19T06:29:09;33.50;40.10
70986;DHT22;58645;43.068;25.610;2022-08-19T06:31:36;33.70;39.50
70986;DHT22;58645;43.068;25.610;2022-08-19T06:34:03;33.80;40.10
70986;DHT22;58645;43.068;25.610;2022-08-19T06:36:36;34.00;38.70
70986;DHT22;58645;43.068;25.610;2022-08-19T06:39:10;34.30;38.20
70986;DHT22;58645;43.068;25.610;2022-08-19T06:41:39;34.80;37.70
70986;DHT22;58645;43.068;25.610;2022-08-19T06:44:06;35.00;37.10
70986;DHT22;58645;43.068;25.610;2022-08-19T06:46:33;35.00;37.20
70986;DHT22;58645;43.068;25.610;2022-08-19T06:48:59;35.30;36.90
70986;DHT22;58645;43.068;25.610;2022-08-19T06:51:25;35.90;35.60
70986;DHT22;58645;43.068;25.610;2022-08-19T06:53:53;36.00;35.40
70986;DHT22;58645;43.068;25.610;2022-08-19T06:56:25;36.40;35.50
70986;DHT22;58645;43.068;25.610;2022-08-19T06:58:57;36.50;35.50
70986;DHT22;58645;43.068;25.610;2022-08-19T07:01:24;36.60;34.80
70986;DHT22;58645;43.068;25.610;2022-08-19T07:03:49;36.60;34.70
70986;DHT22;58645;43.068;25.610;2022-08-19T07:06:16;36.90;34.30
70986;DHT22;58645;43.068;25.610;2022-08-19T07:08:44;37.10;34.50
70986;DHT22;58645;43.068;25.610;2022-08-19T07:11:13;36.90;33.90
70986;DHT22;58645;43.068;25.610;2022-08-19T07:13:39;36.90;33.80
70986;DHT22;58645;43.068;25.610;2022-08-19T07:16:12;37.40;33.60
70986;DHT22;58645;43.068;25.610;2022-08-19T07:18:38;37.30;33.20
70986;DHT22;58645;43.068;25.610;2022-08-19T07:21:14;37.40;33.90
70986;DHT22;58645;43.068;25.610;2022-08-19T07:23:41;37.40;33.10
70986;DHT22;58645;43.068;25.610;2022-08-19T07:26:14;37.10;33.60
70986;DHT22;58645;43.068;25.610;2022-08-19T07:28:41;37.30;33.30
70986;DHT22;58645;43.068;25.610;2022-08-19T07:31:11;37.40;32.90
70986;DHT22;58645;43.068;25.610;2022-08-19T07:33:38;37.50;33.00
70986;DHT22;58645;43.068;25.610;2022-08-19T07:36:06;37.80;32.40
70986;DHT22;58645;43.068;25.610;2022-08-19T07:38:33;38.00;32.30
70986;DHT22;58645;43.068;25.610;2022-08-19T07:40:59;38.20;31.50
70986;DHT22;58645;43.068;25.610;2022-08-19T07:43:26;38.50;31.10
70986;DHT22;58645;43.068;25.610;2022-08-19T07:45:53;39.00;30.90
70986;DHT22;58645;43.068;25.610;2022-08-19T07:48:23;39.00;30.60
70986;DHT22;58645;43.068;25.610;2022-08-19T07:50:55;38.80;30.10
70986;DHT22;58645;43.068;25.610;2022-08-19T07:53:22;39.10;30.00
70986;DHT22;58645;43.068;25.610;2022-08-19T07:55:49;39.10;29.80
70986;DHT22;58645;43.068;25.610;2022-08-19T07:58:16;39.30;29.50
70986;DHT22;58645;43.068;25.610;2022-08-19T08:00:45;39.60;28.60
70986;DHT22;58645;43.068;25.610;2022-08-19T08:03:12;39.60;28.40
70986;DHT22;58645;43.068;25.610;2022-08-19T08:05:38;39.30;28.10
70986;DHT22;58645;43.068;25.610;2022-08-19T08:08:23;38.70;29.20
70986;DHT22;58645;43.068;25.610;2022-08-19T08:11:07;38.90;28.70
70986;DHT22;58645;43.068;25.610;2022-08-19T08:13:34;39.20;29.10
70986;DHT22;58645;43.068;25.610;2022-08-19T08:16:01;39.70;28.20
70986;DHT22;58645;43.068;25.610;2022-08-19T08:18:27;39.70;28.10
70986;DHT22;58645;43.068;25.610;2022-08-19T08:20:54;39.90;27.70
70986;DHT22;58645;43.068;25.610;2022-08-19T08:23:19;40.10;28.20
70986;DHT22;58645;43.068;25.610;2022-08-19T08:25:49;39.70;27.10
70986;DHT22;58645;43.068;25.610;2022-08-19T08:28:16;39.70;27.20
70986;DHT22;58645;43.068;25.610;2022-08-19T08:30:41;39.90;27.30
70986;DHT22;58645;43.068;25.610;2022-08-19T08:33:12;39.50;27.60
70986;DHT22;58645;43.068;25.610;2022-08-19T08:35:40;39.90;27.70
70986;DHT22;58645;43.068;25.610;2022-08-19T08:38:11;40.10;27.20
70986;DHT22;58645;43.068;25.610;2022-08-19T08:40:57;40.40;25.90
70986;DHT22;58645;43.068;25.610;2022-08-19T08:43:35;40.70;25.20
70986;DHT22;58645;43.068;25.610;2022-08-19T08:51:34;40.70;26.20
70986;DHT22;58645;43.068;25.610;2022-08-19T08:54:02;40.70;26.10
70986;DHT22;58645;43.068;25.610;2022-08-19T08:56:30;39.80;26.90
70986;DHT22;58645;43.068;25.610;2022-08-19T08:59:07;40.20;26.70
70986;DHT22;58645;43.068;25.610;2022-08-19T09:01:35;39.70;26.40
70986;DHT22;58645;43.068;25.610;2022-08-19T09:04:06;39.90;26.30
70986;DHT22;58645;43.068;25.610;2022-08-19T09:06:53;40.70;26.00
70986;DHT22;58645;43.068;25.610;2022-08-19T09:09:29;41.10;24.90
70986;DHT22;58645;43.068;25.610;2022-08-19T09:14:58;41.50;23.60
70986;DHT22;58645;43.068;25.610;2022-08-19T09:17:27;41.20;23.70
70986;DHT22;58645;43.068;25.610;2022-08-19T09:22:22;40.60;24.20
70986;DHT22;58645;43.068;25.610;2022-08-19T09:24:49;40.40;24.30
70986;DHT22;58645;43.068;25.610;2022-08-19T09:27:19;40.30;25.60
70986;DHT22;58645;43.068;25.610;2022-08-19T09:29:46;40.90;24.20
70986;DHT22;58645;43.068;25.610;2022-08-19T09:32:14;41.40;22.50
70986;DHT22;58645;43.068;25.610;2022-08-19T09:34:40;41.90;21.30
70986;DHT22;58645;43.068;25.610;2022-08-19T09:37:07;42.00;22.10
70986;DHT22;58645;43.068;25.610;2022-08-19T09:39:32;42.30;21.60
70986;DHT22;58645;43.068;25.610;2022-08-19T09:41:58;42.20;21.30
70986;DHT22;58645;43.068;25.610;2022-08-19T09:44:24;42.60;20.90
70986;DHT22;58645;43.068;25.610;2022-08-19T09:46:50;42.60;20.90
70986;DHT22;58645;43.068;25.610;2022-08-19T09:49:18;42.90;21.50
70986;DHT22;58645;43.068;25.610;2022-08-19T09:51:44;42.60;21.10
70986;DHT22;58645;43.068;25.610;2022-08-19T09:54:10;42.80;21.10
70986;DHT22;58645;43.068;25.610;2022-08-19T09:56:36;43.20;21.10
70986;DHT22;58645;43.068;25.610;2022-08-19T09:59:03;42.60;21.10
70986;DHT22;58645;43.068;25.610;2022-08-19T10:01:30;42.90;20.60
70986;DHT22;58645;43.068;25.610;2022-08-19T10:03:58;42.40;21.40
70986;DHT22;58645;43.068;25.610;2022-08-19T10:06:28;42.40;21.70
70986;DHT22;58645;43.068;25.610;2022-08-19T10:09:01;42.60;20.50
70986;DHT22;58645;43.068;25.610;2022-08-19T10:11:30;41.50;20.90
70986;DHT22;58645;43.068;25.610;2022-08-19T10:13:56;40.70;24.10
70986;DHT22;58645;43.068;25.610;2022-08-19T10:16:23;40.60;24.00
70986;DHT22;58645;43.068;25.610;2022-08-19T10:18:49;41.10;23.80
70986;DHT22;58645;43.068;25.610;2022-08-19T10:21:21;41.60;22.40
70986;DHT22;58645;43.068;25.610;2022-08-19T10:23:49;42.00;22.80
70986;DHT22;58645;43.068;25.610;2022-08-19T10:26:20;42.30;22.50
70986;DHT22;58645;43.068;25.610;2022-08-19T10:28:47;42.30;21.80
70986;DHT22;58645;43.068;25.610;2022-08-19T10:31:19;42.40;22.10
70986;DHT22;58645;43.068;25.610;2022-08-19T10:33:47;42.70;21.30
70986;DHT22;58645;43.068;25.610;2022-08-19T10:36:21;42.10;22.80
70986;DHT22;58645;43.068;25.610;2022-08-19T10:38:51;42.00;22.70
70986;DHT22;58645;43.068;25.610;2022-08-19T10:41:20;41.90;22.30
70986;DHT22;58645;43.068;25.610;2022-08-19T10:43:50;41.70;22.80
70986;DHT22;58645;43.068;25.610;2022-08-19T10:46:20;41.50;22.90
70986;DHT22;58645;43.068;25.610;2022-08-19T10:48:47;41.30;23.90
70986;DHT22;58645;43.068;25.610;2022-08-19T10:51:13;41.40;23.60
70986;DHT22;58645;43.068;25.610;2022-08-19T10:53:59;41.70;22.80
70986;DHT22;58645;43.068;25.610;2022-08-19T10:56:25;41.70;23.40
70986;DHT22;58645;43.068;25.610;2022-08-19T10:59:10;41.60;23.60
70986;DHT22;58645;43.068;25.610;2022-08-19T11:01:38;41.80;22.50
70986;DHT22;58645;43.068;25.610;2022-08-19T11:04:04;42.30;22.60
70986;DHT22;58645;43.068;25.610;2022-08-19T11:06:33;42.50;20.90
70986;DHT22;58645;43.068;25.610;2022-08-19T11:08:59;42.90;20.30
70986;DHT22;58645;43.068;25.610;2022-08-19T11:11:26;43.00;20.20
70986;DHT22;58645;43.068;25.610;2022-08-19T11:13:52;42.70;20.80
70986;DHT22;58645;43.068;25.610;2022-08-19T11:16:24;43.00;20.50
70986;DHT22;58645;43.068;25.610;2022-08-19T11:18:57;42.90;19.50
70986;DHT22;58645;43.068;25.610;2022-08-19T11:21:36;41.50;20.60
70986;DHT22;58645;43.068;25.610;2022-08-19T11:24:05;41.40;21.10
70986;DHT22;58645;43.068;25.610;2022-08-19T11:26:32;41.50;21.50
70986;DHT22;58645;43.068;25.610;2022-08-19T11:28:59;41.80;21.90
70986;DHT22;58645;43.068;25.610;2022-08-19T11:31:29;42.00;21.80
70986;DHT22;58645;43.068;25.610;2022-08-19T11:33:57;41.90;20.30
70986;DHT22;58645;43.068;25.610;2022-08-19T11:36:23;41.50;20.60
70986;DHT22;58645;43.068;25.610;2022-08-19T11:38:49;40.60;22.00
70986;DHT22;58645;43.068;25.610;2022-08-19T11:41:17;40.30;23.00
70986;DHT22;58645;43.068;25.610;2022-08-19T11:43:44;40.70;22.20
70986;DHT22;58645;43.068;25.610;2022-08-19T11:46:12;41.00;21.10
70986;DHT22;58645;43.068;25.610;2022-08-19T11:48:38;41.10;21.30
70986;DHT22;58645;43.068;25.610;2022-08-19T11:51:08;41.40;21.20
70986;DHT22;58645;43.068;25.610;2022-08-19T11:53:34;41.70;20.50
70986;DHT22;58645;43.068;25.610;2022-08-19T11:56:01;41.60;20.30
70986;DHT22;58645;43.068;25.610;2022-08-19T11:58:27;41.00;22.30
70986;DHT22;58645;43.068;25.610;2022-08-19T12:00:54;40.70;22.70
70986;DHT22;58645;43.068;25.610;2022-08-19T12:03:20;41.10;22.80
70986;DHT22;58645;43.068;25.610;2022-08-19T12:05:46;41.00;21.50
70986;DHT22;58645;43.068;25.610;2022-08-19T12:08:12;40.00;22.40
70986;DHT22;58645;43.068;25.610;2022-08-19T12:10:39;39.90;22.50
70986;DHT22;58645;43.068;25.610;2022-08-19T12:13:05;40.30;22.60
70986;DHT22;58645;43.068;25.610;2022-08-19T12:15:37;40.90;20.90
70986;DHT22;58645;43.068;25.610;2022-08-19T12:18:03;41.00;20.50
70986;DHT22;58645;43.068;25.610;2022-08-19T12:20:29;41.30;21.00
70986;DHT22;58645;43.068;25.610;2022-08-19T12:22:55;41.30;20.30
70986;DHT22;58645;43.068;25.610;2022-08-19T12:25:21;41.40;20.00
70986;DHT22;58645;43.068;25.610;2022-08-19T12:27:47;41.20;18.90
70986;DHT22;58645;43.068;25.610;2022-08-19T12:30:14;41.40;18.90
70986;DHT22;58645;43.068;25.610;2022-08-19T12:32:40;41.30;18.80
70986;DHT22;58645;43.068;25.610;2022-08-19T12:35:07;41.70;18.70
70986;DHT22;58645;43.068;25.610;2022-08-19T12:37:34;41.80;18.80
70986;DHT22;58645;43.068;25.610;2022-08-19T12:40:00;41.70;18.90
70986;DHT22;58645;43.068;25.610;2022-08-19T12:42:26;41.40;20.10
70986;DHT22;58645;43.068;25.610;2022-08-19T12:44:52;41.40;20.20
70986;DHT22;58645;43.068;25.610;2022-08-19T12:47:18;41.40;21.80
70986;DHT22;58645;43.068;25.610;2022-08-19T12:49:44;41.30;21.90
70986;DHT22;58645;43.068;25.610;2022-08-19T12:52:12;41.00;22.20
70986;DHT22;58645;43.068;25.610;2022-08-19T12:54:41;40.90;20.70
70986;DHT22;58645;43.068;25.610;2022-08-19T12:57:10;41.00;20.60
70986;DHT22;58645;43.068;25.610;2022-08-19T12:59:36;40.50;20.60
70986;DHT22;58645;43.068;25.610;2022-08-19T13:02:06;39.80;22.60
70986;DHT22;58645;43.068;25.610;2022-08-19T13:04:33;39.00;24.50
70986;DHT22;58645;43.068;25.610;2022-08-19T13:07:06;38.80;24.80
70986;DHT22;58645;43.068;25.610;2022-08-19T13:09:34;38.70;25.00
70986;DHT22;58645;43.068;25.610;2022-08-19T13:12:00;38.70;24.70
70986;DHT22;58645;43.068;25.610;2022-08-19T13:14:29;38.70;24.90
70986;DHT22;58645;43.068;25.610;2022-08-19T13:16:56;38.30;25.60
70986;DHT22;58645;43.068;25.610;2022-08-19T13:19:22;37.70;26.10
70986;DHT22;58645;43.068;25.610;2022-08-19T13:21:50;37.20;27.00
70986;DHT22;58645;43.068;25.610;2022-08-19T13:24:17;36.90;27.40
70986;DHT22;58645;43.068;25.610;2022-08-19T13:26:42;36.40;27.90
70986;DHT22;58645;43.068;25.610;2022-08-19T13:29:08;36.20;28.60
70986;DHT22;58645;43.068;25.610;2022-08-19T13:32:10;36.00;29.20
70986;DHT22;58645;43.068;25.610;2022-08-19T13:34:55;35.70;29.30
70986;DHT22;58645;43.068;25.610;2022-08-19T13:37:21;35.40;29.80
70986;DHT22;58645;43.068;25.610;2022-08-19T13:40:08;35.30;29.50
70986;DHT22;58645;43.068;25.610;2022-08-19T13:42:38;35.20;29.70
70986;DHT22;58645;43.068;25.610;2022-08-19T13:45:05;35.30;29.60
70986;DHT22;58645;43.068;25.610;2022-08-19T13:47:32;35.30;29.90
70986;DHT22;58645;43.068;25.610;2022-08-19T13:50:03;35.30;30.20
70986;DHT22;58645;43.068;25.610;2022-08-19T13:52:28;35.20;31.20
70986;DHT22;58645;43.068;25.610;2022-08-19T13:54:54;35.30;31.10
70986;DHT22;58645;43.068;25.610;2022-08-19T13:57:21;35.30;31.10
70986;DHT22;58645;43.068;25.610;2022-08-19T13:59:47;35.10;31.50
70986;DHT22;58645;43.068;25.610;2022-08-19T14:02:13;34.80;31.40
70986;DHT22;58645;43.068;25.610;2022-08-19T14:04:38;34.80;31.70
70986;DHT22;58645;43.068;25.610;2022-08-19T14:07:04;34.80;31.50
70986;DHT22;58645;43.068;25.610;2022-08-19T14:09:30;34.90;30.90
70986;DHT22;58645;43.068;25.610;2022-08-19T14:11:56;34.90;30.90
70986;DHT22;58645;43.068;25.610;2022-08-19T14:14:22;34.70;31.40
70986;DHT22;58645;43.068;25.610;2022-08-19T14:16:48;34.40;31.80
70986;DHT22;58645;43.068;25.610;2022-08-19T14:19:14;34.40;32.30
70986;DHT22;58645;43.068;25.610;2022-08-19T14:21:40;34.30;32.30
70986;DHT22;58645;43.068;25.610;2022-08-19T14:24:07;34.10;32.80
70986;DHT22;58645;43.068;25.610;2022-08-19T14:26:33;34.10;32.80
70986;DHT22;58645;43.068;25.610;2022-08-19T14:28:58;34.10;32.70
70986;DHT22;58645;43.068;25.610;2022-08-19T14:31:24;34.10;32.80
70986;DHT22;58645;43.068;25.610;2022-08-19T14:33:51;33.90;32.50
70986;DHT22;58645;43.068;25.610;2022-08-19T14:36:18;33.80;33.10
70986;DHT22;58645;43.068;25.610;2022-08-19T14:38:46;33.70;33.20
70986;DHT22;58645;43.068;25.610;2022-08-19T14:41:21;33.80;33.30
70986;DHT22;58645;43.068;25.610;2022-08-19T14:43:48;33.90;33.20
70986;DHT22;58645;43.068;25.610;2022-08-19T14:46:18;34.00;33.40
70986;DHT22;58645;43.068;25.610;2022-08-19T14:48:46;34.00;33.50
70986;DHT22;58645;43.068;25.610;2022-08-19T14:51:13;33.90;32.90
70986;DHT22;58645;43.068;25.610;2022-08-19T14:53:39;33.90;33.00
70986;DHT22;58645;43.068;25.610;2022-08-19T14:56:11;33.90;32.90
70986;DHT22;58645;43.068;25.610;2022-08-19T14:58:37;33.90;32.90
70986;DHT22;58645;43.068;25.610;2022-08-19T15:01:03;33.90;32.20
70986;DHT22;58645;43.068;25.610;2022-08-19T15:03:30;33.90;32.90
70986;DHT22;58645;43.068;25.610;2022-08-19T15:05:58;33.90;33.10
70986;DHT22;58645;43.068;25.610;2022-08-19T15:08:27;33.70;33.60
70986;DHT22;58645;43.068;25.610;2022-08-19T15:10:54;33.80;33.70
70986;DHT22;58645;43.068;25.610;2022-08-19T15:13:20;33.70;33.40
70986;DHT22;58645;43.068;25.610;2022-08-19T15:15:47;33.80;33.20
70986;DHT22;58645;43.068;25.610;2022-08-19T15:18:13;33.70;33.00
70986;DHT22;58645;43.068;25.610;2022-08-19T15:20:39;33.50;33.40
70986;DHT22;58645;43.068;25.610;2022-08-19T15:23:06;33.40;33.90
70986;DHT22;58645;43.068;25.610;2022-08-19T15:25:33;33.40;33.70
70986;DHT22;58645;43.068;25.610;2022-08-19T15:27:59;33.30;34.00
70986;DHT22;58645;43.068;25.610;2022-08-19T15:30:27;33.20;34.80
70986;DHT22;58645;43.068;25.610;2022-08-19T15:32:54;33.10;35.00